NWS Home NWS Lubbock West Texas Mesonet Latest Conditions as of 0958 PM, Sun Sep 15, 2019

Latest   N   C   S   Daily Sum   3hrΔ   24hrΔ   Soil Data 
Site Map   24hr Precip   72hr Precip   Google Plot


Station Time of Last Temp Dew Pt. RH Wind Direction Wind Speed Wind Gust Max Wind Max Temp Min Temp Max RH Min RH Altimeter 1HR Rain Today's Rain Solar Rad RFTI
Abernathy 5ENE  09:50 PM 71 53 54% S89 22 mph 175° @ 0145 PM 88 61 88 28 30.15" 0 0 0 0
Adrian 6WSW  09:50 PM 72 50 46% S1417 28 mph 210° @ 1159 AM 86 63 73 29 30.18" 0 0 0 0
Aiken 3WSW  09:50 PM 69 59 71% S88 23 mph 159° @ 0514 PM 88 61 92 29 30.15" 0 0 0 0
Amarillo 15NNW   09:50 PM 75 52 46% S1010 28 mph 166° @ 0505 PM 92 61 85 27 30.12" 0 0 0 0
Amarillo 7SSE  09:50 PM 71 51 49% S89 27 mph 181° @ 0401 PM 91 61 84 25 30.16" 0 0 0 0
Amarillo 9NNE  09:50 PM 72 52 49% S78 31 mph 188° @ 0146 PM 90 63 81 28 30.13" 0 0 0 0
Amherst 1NE  09:50 PM 70 55 61% S45 23 mph 148° @ 0235 PM 86 61 90 32 30.16" 0 0 0 0
Andrews 2E  09:50 PM 77 51 41% E710 22 mph 123° @ 0525 PM 90 63 76 20 30.12" 0 0 0 0
Anton 6SSW  09:50 PM 73 53 51% SE67 24 mph 149° @ 0330 PM 88 61 89 28 30.14" 0 0 0 0
Aspermont 3NE  09:50 PM 79 55 44% SE79 19 mph 149° @ 0445 PM 96 61 85 24 30.05" 0 0 0 0
Big Bend NP - Castolon  09:50 PM 89 53 30% E1519 23 mph 110° @ 0942 PM 96 73 58 20 29.98" 0 0 0 0
Big Bend NP - Persimmon Gap  09:50 PM 82 51 35% NE78 22 mph 68° @ 0520 PM 93 71 56 22 30.06" 0 0 0 0
Big Lake 1WNW  09:50 PM 80 53 41% E68 27 mph 117° @ 0254 PM 92 65 66 26 30.11" 0 0 0 0
Bootleg 11WNW  09:50 PM 71 47 42% S1213 31 mph 171° @ 0344 PM 87 62 73 26 30.21" 0 0 0 0
Boys Ranch 1WSW  09:50 PM 74 51 43% S44 26 mph 178° @ 0508 PM 93 62 80 26 30.12" 0 0 0 0
Brownfield 2S  09:50 PM 73 54 53% SE56 22 mph 160° @ 0245 PM 88 63 83 27 30.13" 0 0 0 0
Canadian 6E  09:50 PM 76 56 50% SE910 26 mph 180° @ 0153 PM 96 67 75 26 30.07" 0 0 0 0
Caprock Canyons State Park  09:50 PM 73 58 58% S55 23 mph 140° @ 0432 PM 91 69 67 24 30.11" 0 0 0 0
Childress 2NNE  09:50 PM 78 58 54% SE910 22 mph 153° @ 0350 PM 94 68 82 25 30.07" 0 0 0 0
Clarendon 2WSW  09:50 PM 81 51 37% SE1215 24 mph 184° @ 0305 PM 92 65 75 23 30.11" 0 0 0 0
Claude 12SW  09:50 PM 74 52 45% SE45 24 mph 199° @ 0227 PM 90 69 63 25 30.14" 0 0 0 0
Clyde 2WNW  09:50 PM 80 59 48% SE79 20 mph 123° @ 0131 PM 94 68 71 26 30.08" 0 0 0 0
Colorado City 5NW  09:40 PM 76 59 56% E45 21 mph 109° @ 0536 PM 95 64 85 27 30.09" 0 0 0 0
Coyanosa 2N  09:50 PM 77 51 41% SE77 27 mph 149° @ 0138 PM 94 62 82 22 30.06" 0 0 0 0
Crane 1NNW   09:50 PM 80 52 38% SE78 29 mph 128° @ 0539 PM 93 65 71 21 30.07" 0 0 0 0
Crowell 1E  09:50 PM 81 63 54% SE78 22 mph 157° @ 0507 PM 98 71 78 23 30.05" 0 0 0 0
Dell City  09:50 PM 75 61 60% SE24 21 mph 314° @ 0635 PM 90 64 74 25 30.09" 0 0 0 0
Denver City 7WNW  09:50 PM 69 51 55% SE78 24 mph 163° @ 0215 PM 87 62 83 24 30.14" 0 0 0 0
Dimmitt 2NE  09:50 PM 71 56 62% S1010 26 mph 197° @ 0115 PM 85 61 89 33 30.17" 0 0 0 0
Doole 3WNW  09:50 PM 78 57 48% SE67 19 mph 95° @ 0225 PM 95 61 87 26 30.04" 0 0 0 0
Dora NM 2SW  09:50 PM 71 50 49% SE1014 27 mph 162° @ 0140 PM 86 60 85 25 30.18" 0 0 0 0
Dozier 3W  09:50 PM 78 57 49% SE34 30 mph 136° @ 0404 PM 95 64 92 27 30.09" 0 0 0 0
Earth 9WSW  09:50 PM 68 54 60% SE1010 23 mph 186° @ 1140 AM 89 59 94 27 30.17" 0 0 0 0
Endee NM 2SW  09:50 PM 73 50 44% SE910 28 mph 185° @ 0354 PM 89 62 74 26 30.16" 0 0 0 0
Estelline 3SSE  09:50 PM 80 60 50% SE89 22 mph 136° @ 0327 PM 95 66 90 26 30.06" 0 0 0 0
Floydada 2NNE  09:50 PM 71 55 59% SE89 23 mph 194° @ 0220 PM 90 64 80 25 30.14" 0 0 0 0
Fluvanna 3WNW  09:50 PM 76 52 45% SE56 22 mph 137° @ 0230 PM 90 65 72 26 30.11" 0 0 0 0
Fort Chadbourne  09:50 PM 79 57 47% E55 20 mph 141° @ 0527 PM 95 63 88 26 30.07" 0 0 0 0
Fort Lancaster  09:50 PM 82 54 38% SE45 25 mph 105° @ 0449 PM 95 65 72 23 30.06" 0 0 0 0
Fort Lewis CO  09:50 PM 53 50 88% NE915 18 mph 72° @ 0912 PM 63 48 94 26 30.35" 0 0 0 0
Fort McKavett  09:50 PM 77 56 48% SE67 20 mph 74° @ 0330 PM 94 64 83 30 30.08" 0 0 0 0
Friona 2NE  09:50 PM 68 52 58% SE88 27 mph 181° @ 0320 PM 86 58 91 27 30.18" 0 0 0 0
Fritch 1WNW  09:50 PM 77 51 40% S1114 29 mph 211° @ 0418 PM 92 68 68 26 30.11" 0 0 0 0
Gail 2ESE  09:50 PM 76 51 44% SE66 24 mph 182° @ 1230 PM 93 62 81 23 30.09" 0 0 0 0
Goodlett 3W  09:50 PM 79 61 57% E89 21 mph 165° @ 0335 PM 95 69 82 24 30.04" 0 0 0 0
Goodnight  09:50 PM 74 54 50% SE67 31 mph 191° @ 0134 PM 92 62 84 27 30.15" 0 0 0 0
Graham 5SSW  09:50 PM 79 50 37% SE78 24 mph 128° @ 0320 PM 90 69 64 24 30.12" 0 0 0 0
Guadalupe Mtns Natl Park  09:50 PM 72 47 42% E78 18 mph 130° @ 0334 PM 81 60 66 32 30.24" 0 0 0 0
Guthrie 10WSW  09:50 PM 80 53 40% E911 21 mph 123° @ 0705 PM 96 68 75 21 30.06" 0 0 0 0
Hackberry 2 SSE  09:50 PM 82 60 48% SE912 21 mph 145° @ 0457 PM 96 68 81 23 30.06" 0 0 0 0
Happy 1E  09:50 PM 67 58 72% S77 25 mph 216° @ 1255 PM 87 61 89 31 30.16" 0 0 0 0
Hart 3N  09:50 PM 69 56 64% SE57 22 mph 182° @ 0145 PM 87 60 90 27 30.16" 0 0 0 0
Haskell 1NW  09:50 PM 82 58 47% E58 18 mph 133° @ 0345 PM 94 67 82 28 30.04" 0 0 0 0
Hereford 2NW  09:50 PM 72 52 51% SE68 26 mph 176° @ 0345 PM 87 59 80 27 30.16" 0 0 0 0
Hobbs NM 5NW  09:50 PM 76 46 35% SE911 27 mph 146° @ 0146 PM 87 65 69 23 30.17" 0 0 0 0
Jayton 1SSE  09:50 PM 80 53 40% SE79 30 mph 138° @ 0635 PM 95 68 73 24 30.07" 0 0 0 0
Junction 1SSW  09:50 PM 82 57 42% SE57 21 mph 131° @ 0244 PM 95 60 88 26 30.06" 0 0 0 0
Knox City 3NW  09:50 PM 83 58 44% E89 20 mph 125° @ 0545 PM 98 67 79 24 30.04" 0 0 0 0
Lake Alan Henry 1NW  09:50 PM 80 58 47% SE44 22 mph 143° @ 0339 PM 95 67 71 24 30.08" 0 0 0 0
Lake McClellan 2NW  09:50 PM 76 52 44% SE78 27 mph 166° @ 0247 PM 92 68 67 26 30.14" 0 0 0 0
Lamesa 2SE  09:50 PM 76 52 45% SE68 19 mph 154° @ 0125 PM 89 63 76 27 30.12" 0 0 0 0
Lesley 2S  09:50 PM 78 56 47% SE78 23 mph 168° @ 0419 PM 97 66 78 22 30.07" 0 0 0 0
Levelland 4S  09:50 PM 70 53 56% SE79 23 mph 152° @ 0410 PM 87 60 89 25 30.15" 0 0 0 0
Lomax 1SSE  09:50 PM 74 61 64% E56 20 mph 134° @ 0303 PM 91 64 88 27 30.10" 0 0 0 0
Lubbock 3WNW TTU  09:50 PM 78 51 40% SE710 23 mph 159° @ 0225 PM 90 66 68 25 30.13" 0 0 0 0
McCamey 1SSW  09:50 PM 81 54 39% E46 25 mph 136° @ 0349 PM 93 70 65 23 30.07" 0 0 0 0
McLean 1E  09:50 PM 76 53 46% SE79 23 mph 190° @ 0310 PM 91 67 74 28 30.10" 0 0 0 0
Memphis 1NE  09:50 PM 79 55 45% SE67 22 mph 118° @ 0420 PM 94 63 88 24 30.07" 0 0 0 0
Menard 2NW   09:50 PM 77 58 53% E33 21 mph 103° @ 0301 PM 93 59 91 30 30.07" 0 0 0 0
Mertzon 3NNE  09:50 PM 77 54 45% SE44 22 mph 117° @ 0408 PM 95 57 82 25 30.08" 0 0 0 0
Morton 1ENE  09:50 PM 73 51 48% SE710 22 mph 141° @ 0430 PM 88 61 87 26 30.15" 0 0 0 0
Muleshoe 2SSW  09:50 PM 69 51 55% S89 26 mph 167° @ 0225 PM 87 59 89 26 30.16" 0 0 0 0
New Home  09:50 PM 72 57 59% SE45 21 mph 170° @ 0200 PM 89 65 81 29 30.15" 0 0 0 0
Northfield 1S  09:50 PM 80 55 44% SE1012 20 mph 227° @ 1150 AM 95 68 73 23 30.07" 0 0 0 0
O'Donnell 1N  09:50 PM 76 52 45% SE67 19 mph 105° @ 0150 PM 91 65 69 26 30.12" 0 0 0 0
Odell 4ENE  09:50 PM 82 64 54% SE911 30 mph 149° @ 0325 PM 98 72 75 22 30.05" 0 0 0 0
Olton 6S  09:50 PM 70 53 55% S89 22 mph 162° @ 0225 PM 88 61 88 26 30.15" 0 0 0 0
Paducah 10SW  09:50 PM 78 57 51% SE79 18 mph 143° @ 0320 PM 94 67 81 24 30.07" 0 0 0 0
Palo Duro 4E (JA Ranch)  09:50 PM 71 59 68% SE34 22 mph 188° @ 0227 PM 93 59 95 28 30.10" 0 0 0 0
Palo Duro Canyon SP Floor  09:50 PM 79 54 41% SE56 26 mph 134° @ 0341 PM 94 61 87 24 30.10" 0 0 0 0
Palo Duro Canyon State Park Rim  09:50 PM 76 51 42% S34 24 mph 197° @ 0403 PM 91 64 77 26 30.16" 0 0 0 0
Palo Duro Reservoir 1NW   09:50 PM 75 53 46% S1011 31 mph 204° @ 1111 AM 95 63 77 24 30.10" 0 0 0 0
Pampa 2E  09:50 PM 74 52 49% S911 26 mph 189° @ 0420 PM 90 64 79 28 30.12" 0 0 0 0
Panhandle 1SSW  09:50 PM 67 53 60% S89 27 mph 172° @ 0408 PM 91 59 89 29 30.15" 0 0 0 0
Plains 3N  09:50 PM 71 51 51% SE78 25 mph 157° @ 0355 PM 86 62 82 30 30.15" 0 0 0 0
Plainview 1S  09:50 PM 72 56 59% SE57 20 mph 155° @ 0445 PM 89 62 90 29 30.14" 0 0 0 0
Post 1NE  09:50 PM 79 49 37% S45 24 mph 174° @ 0445 PM 93 66 69 20 30.10" 0 0 0 0
Ralls 1SE  09:50 PM 73 53 51% SE89 24 mph 158° @ 0210 PM 90 63 80 25 30.14" 0 0 0 0
Reese Center  09:50 PM 77 54 47% SE89 24 mph 146° @ 0310 PM 89 64 77 27 30.14" 0 0 0 0
Roaring Springs 3N  09:50 PM 78 58 53% SE79 22 mph 156° @ 0335 PM 92 66 83 28 30.10" 0 0 0 0
Romero 11 SSW  09:50 PM 75 50 41% S1113 26 mph 192° @ 0204 PM 88 60 83 30 30.14" 0 0 0 0
Rotan 5W  09:50 PM 77 57 49% SE66 22 mph 79° @ 1246 PM 94 66 82 27 30.08" 0 0 0 0
San Angelo 7NW  09:50 PM 77 54 45% E56 26 mph 100° @ 0325 PM 95 62 74 22 30.06" 0 0 0 0
Seagraves 1SW  09:50 PM 74 53 50% SE35 29 mph 159° @ 0225 PM 88 61 88 27 30.13" 0 0 0 0
Segovia 7SSW  09:50 PM 79 57 47% SE67 23 mph 57° @ 0402 PM 91 66 80 29 30.09" 0 0 0 0
Seminole 2NNE  09:50 PM 72 51 49% SE67 25 mph 167° @ 0310 PM 89 61 82 21 30.12" 0 0 0 0
Seymour 3NW  09:50 PM 78 62 59% E79 24 mph 139° @ 0300 PM 97 70 76 29 30.03" 0 0 0 0
Sierra Blanca 1SSE  09:50 PM 77 55 47% N67 23 mph 137° @ 0115 AM 84 63 71 31 30.14" 0 0 0 0
Silverton 7ESE  09:50 PM 71 54 58% SE911 20 mph 147° @ 0400 PM 90 64 82 26 30.14" 0 0 0 0
Slaton 2NE  09:50 PM 73 56 55% S910 22 mph 134° @ 0420 PM 90 63 87 24 30.13" 0 0 0 0
Smyer  09:50 PM 77 53 44% S57 21 mph 142° @ 0335 PM 89 63 79 28 30.15" 0 0 0 0
Snyder 3E  09:50 PM 77 56 51% E88 20 mph 135° @ 0550 PM 93 68 75 25 30.09" 0 0 0 0
Snyder 3SSW  09:50 PM 77 58 53% SE44 19 mph 177° @ 0120 PM 93 66 80 27 30.10" 0 0 0 0
South Plains 3ENE  09:50 PM 70 57 62% SE67 22 mph 158° @ 0505 PM 91 61 95 26 30.14" 0 0 0 0
Spur 1W  09:50 PM 79 54 43% SE35 21 mph 163° @ 0620 PM 93 64 93 24 30.08" 0 0 0 0
St. Lawrence 5SW  09:50 PM 75 54 48% E67 29 mph 127° @ 0150 PM 92 62 82 25 30.10" 0 0 0 0
Stamford 5ESE  09:50 PM 81 55 42% SE67 20 mph 134° @ 0431 PM 98 68 77 24 30.05" 0 0 0 0
Sterling City 4WSW  09:50 PM 74 52 47% NE22 23 mph 99° @ 0439 PM 94 56 87 23 30.09" 0 0 0 0
Stinnett 1NNW  09:50 PM 77 51 40% S78 27 mph 235° @ 1211 PM 93 64 75 26 30.13" 0 0 0 0
Stratford 4WNW  09:50 PM 72 52 50% S911 32 mph 185° @ 0432 PM 91 61 80 28 30.13" 0 0 0 0
Sundown 8WSW  09:50 PM 69 51 55% SE89 29 mph 161° @ 1220 PM 88 60 86 26 30.15" 0 0 0 0
Sweetwater 11SW   09:50 PM 76 58 53% E89 18 mph 107° @ 0226 PM 91 67 75 28 30.11" 0 0 0 0
Tahoka 3NNE  09:50 PM 78 53 41% SE1113 21 mph 155° @ 0502 PM 91 66 69 23 30.13" 0 0 0 0
Tarzan 2WNW  09:50 PM 79 53 41% E89 22 mph 138° @ 0626 PM 92 63 75 26 30.11" 0 0 0 0
Tatum NM 2SW  09:50 PM 68 52 59% SE88 32 mph 155° @ 0415 PM 87 60 89 26 30.16" 0 0 0 0
Throckmorton 1SW  09:50 PM 79 63 59% SE67 17 mph 106° @ 0211 PM 96 66 92 30 30.05" 0 0 0 0
Tulia 2ENE  09:50 PM 70 57 66% S67 23 mph 209° @ 1235 PM 87 62 90 32 30.15" 0 0 0 0
Turkey 2WSW  09:50 PM 76 59 58% E78 23 mph 178° @ 1245 PM 92 68 81 28 30.09" 0 0 0 0
Umbarger 3NNE  09:50 PM 69 50 51% S88 29 mph 180° @ 0436 PM 89 64 76 25 30.17" 0 0 0 0
Van Horn 3ENE  09:50 PM 79 53 40% E67 23 mph 140° @ 0250 PM 89 64 69 24 30.11" 0 0 0 0
Vigo Park  09:50 PM 71 59 64% SE88 24 mph 198° @ 1259 PM 89 61 93 27 30.15" 0 0 0 0
Wall 2E  09:50 PM 78 58 49% SE78 22 mph 103° @ 0311 PM 94 64 77 28 30.07" 0 0 0 0
Weinert 2NNE  09:50 PM 80 59 49% E77 19 mph 120° @ 0531 PM 97 69 72 24 30.05" 0 0 0 0
Welch  09:50 PM 71 55 58% E77 24 mph 143° @ 0306 PM 89 62 86 28 30.14" 0 0 0 0
White River Lake 6NW  09:45 PM 78 53 43% SE810 21 mph 138° @ 0355 PM 92 68 69 24 30.10" 0 0 0 0
Wolfforth 6SSW  09:50 PM 72 55 56% SE78 27 mph 140° @ 0545 PM 89 64 81 26 30.14" 0 0 0 0

West Texas Mesonet Home   Site Map/Menu  NWS Lubbock Soil Data  Daily Summary Page  24hr Precip  72hr Precip  Google Plot